SBMQ/MCP METAR and TAF weather

Enter ICAO airport designator
Station Type Date Time Source
SBMQ METAR 2020/01/17 22:00 UTC NOAA

SBMQ 172200Z 06008KT 9999 -RA SCT020 SCT060 29/28 Q1010


Station Type Date Time Source
SBMQ Decoded METAR 2020/01/17 22:00 UTC NOAA

Macapa, Brazil (SBMQ) 00-02N 050-03W
Jan 17, 2020 - 05:00 PM EST / 2020.01.17 2200 UTC
Wind: from the ENE (060 degrees) at 9 MPH (8 KT):0
Visibility: greater than 7 mile(s):0
Sky conditions: partly cloudy
Weather: light rain
Temperature: 84 F (29 C)
Dew Point: 82 F (28 C)
Relative Humidity: 94%
Pressure (altimeter): 29.83 in. Hg (1010 hPa)
ob: SBMQ 172200Z 06008KT 9999 -RA SCT020 SCT060 29/28 Q1010
cycle: 22

Station Type Date Time Source
SBMQ TAF 2020/01/17 18:33 UTC NOAA

TAF SBMQ 171630Z 1718/1818 04010KT 9999 SCT020 TN25/1808Z TX33/1818Z
BECMG 1718/1720 07005KT
BECMG 1800/1802 03005KT
BECMG 1803/1806 36005KT
BECMG 1812/1814 02007KT
RMK PGW

Example: see airport list